KDPA/DPA METAR and TAF weather

Enter ICAO airport designator
Station Type Date Time Source
KDPA METAR 2022/12/02 21:52 UTC NOAA

KDPA 022152Z 19017G29KT 10SM BKN036 11/01 A2967 RMK AO2 PK WND 18031/2056 SLP052 T01060011


Station Type Date Time Source
KDPA Decoded METAR 2022/12/02 21:52 UTC NOAA

CHICAGO/WEST CH DUPAGE, IL, United States (KDPA) 41-54N 88-15W 230M
Dec 02, 2022 - 04:52 PM EST / 2022.12.02 2152 UTC
Wind: from the S (190 degrees) at 20 MPH (17 KT) gusting to 33 MPH (29 KT):0
Visibility: 10 mile(s):0
Sky conditions: mostly cloudy
Temperature: 51.1 F (10.6 C)
Dew Point: 34.0 F (1.1 C)
Relative Humidity: 51%
Pressure (altimeter): 29.67 in. Hg (1004 hPa)
ob: KDPA 022152Z 19017G29KT 10SM BKN036 11/01 A2967 RMK AO2 PK WND 18031/2056 SLP052 T01060011
cycle: 22

Station Type Date Time Source
KDPA TAF 2022/12/02 21:06 UTC NOAA

TAF
AMD KDPA 022104Z 0221/0318 19020G30KT P6SM SCT040
FM022300 20021G34KT P6SM BKN030
TEMPO 0304/0306 5SM -SHRADZ SCT010 BKN020
FM030600 28024G39KT P6SM BKN020
FM031100 29020G33KT P6SM SCT035
FM031400 29017G27KT P6SM SKC

Example: see airport list